Time;durP1;ratioP1;P1;durP2;ratioP2;P2;SDS_P1;SDS_P2;PMS_P1;PMS_P2;Temp;Humidity;BMP_temperature;BMP_pressure;BME280_temperature;BME280_humidity;BME280_pressure;Samples;Min_cycle;Max_cycle;Signal;HPM_P1;HPM_P2
2022/05/22 00:00:27;;;;;;;;;;;;;;;9.94;100.00;101167.31;5059569;28;20381;-80
2022/05/22 00:03:00;;;;;;;;;;;;;;;9.97;100.00;101163.25;5039588;28;20415;-80
2022/05/22 00:05:33;;;;;;;;;;;;;;;9.97;100.00;101158.66;5047679;28;19921;-80
2022/05/22 00:08:10;;;;;;;;;;;;;;;9.98;100.00;101156.75;5045739;28;19983;-82
2022/05/22 00:10:38;;;;;;;;;;;;;;;10.01;100.00;101156.22;5053463;28;19927;-79
2022/05/22 00:13:06;;;;;;;;;;;;;;;9.97;100.00;101163.25;5039443;28;20365;-79
2022/05/22 00:15:37;;;;;;;;;;;;;;;9.98;100.00;101157.56;5043732;28;20694;-80
2022/05/22 00:18:05;;;;;;;;;;;;;;;9.95;100.00;101149.94;5046843;28;19920;-80
2022/05/22 00:20:38;;;;;;;;;;;;;;;9.90;100.00;101157.25;5045147;28;20274;-79
2022/05/22 00:23:13;;;;;;;;;;;;;;;9.78;100.00;101155.56;5035869;28;19921;-79
2022/05/22 00:25:45;;;;;;;;;;;;;;;9.73;100.00;101150.06;5053711;28;19921;-79
2022/05/22 00:28:18;;;;;;;;;;;;;;;9.69;100.00;101149.81;5035802;28;19920;-79
2022/05/22 00:30:46;;;;;;;;;;;;;;;9.67;100.00;101151.94;5053096;28;19921;-80
2022/05/22 00:33:14;;;;;;;;;;;;;;;9.74;100.00;101146.28;5039905;28;19928;-79
2022/05/22 00:35:42;;;;;;;;;;;;;;;9.66;100.00;101150.31;5042525;28;19921;-79
2022/05/22 00:38:10;;;;;;;;;;;;;;;9.63;100.00;101142.69;5051408;28;19932;-79
2022/05/22 00:40:40;;;;;;;;;;;;;;;9.58;100.00;101142.63;5053012;28;19931;-79
2022/05/22 00:43:24;;;;;;;;;;;;;;;9.58;100.00;101144.53;5051256;28;20274;-79
2022/05/22 00:45:57;;;;;;;;;;;;;;;9.57;100.00;101148.34;5052728;28;19952;-79
2022/05/22 00:48:31;;;;;;;;;;;;;;;9.48;100.00;101143.38;5067290;28;20373;-79
2022/05/22 00:51:01;;;;;;;;;;;;;;;9.46;100.00;101145.56;5051506;28;19921;-79
2022/05/22 00:53:39;;;;;;;;;;;;;;;9.41;100.00;101140.09;5046791;28;19945;-79
2022/05/22 00:56:15;;;;;;;;;;;;;;;9.31;100.00;101143.53;5067480;28;19921;-79
2022/05/22 00:58:48;;;;;;;;;;;;;;;9.26;100.00;101137.25;5051345;28;19928;-79
2022/05/22 01:01:16;;;;;;;;;;;;;;;9.21;100.00;101140.75;5067685;28;20270;-80
2022/05/22 01:03:49;;;;;;;;;;;;;;;9.19;100.00;101142.91;5039995;28;19921;-79
2022/05/22 01:06:19;;;;;;;;;;;;;;;9.20;100.00;101130.97;5052415;28;19927;-79
2022/05/22 01:08:54;;;;;;;;;;;;;;;9.19;100.00;101129.31;5033868;28;19920;-80
2022/05/22 01:11:31;;;;;;;;;;;;;;;9.18;100.00;101124.97;5052393;28;19929;-80
2022/05/22 01:14:06;;;;;;;;;;;;;;;9.17;100.00;101126.88;5015953;28;19921;-80
2022/05/22 01:16:40;;;;;;;;;;;;;;;9.21;100.00;101129.06;5046549;28;20378;-80
2022/05/22 01:19:12;;;;;;;;;;;;;;;9.20;100.00;101122.81;5047029;28;19928;-81
2022/05/22 01:21:51;;;;;;;;;;;;;;;9.26;100.00;101127.19;5033214;28;19932;-82
2022/05/22 01:24:24;;;;;;;;;;;;;;;9.20;100.00;101120.13;5051111;28;19921;-79
2022/05/22 01:26:53;;;;;;;;;;;;;;;9.18;100.00;101123.09;5050991;28;19931;-79
2022/05/22 01:29:26;;;;;;;;;;;;;;;9.19;100.00;101126.63;5014381;28;1057808;-80
2022/05/22 01:31:54;;;;;;;;;;;;;;;9.13;100.00;101122.22;5050179;28;22072;-80
2022/05/22 01:34:29;;;;;;;;;;;;;;;9.11;100.00;101122.47;5032047;28;19921;-80
2022/05/22 01:36:59;;;;;;;;;;;;;;;9.13;100.00;101122.22;5031466;28;19943;-82
2022/05/22 01:39:33;;;;;;;;;;;;;;;9.14;100.00;101130.13;5032049;28;19921;-80
2022/05/22 01:42:01;;;;;;;;;;;;;;;9.09;100.00;101121.13;5031907;28;19935;-81
2022/05/22 01:44:30;;;;;;;;;;;;;;;9.09;100.00;101127.34;5034589;28;20324;-79
2022/05/22 01:46:58;;;;;;;;;;;;;;;9.11;100.00;101118.94;5035137;28;19928;-80
2022/05/22 01:49:31;;;;;;;;;;;;;;;9.08;100.00;101122.19;5035280;28;19924;-80
2022/05/22 01:52:07;;;;;;;;;;;;;;;9.04;100.00;101126.50;5038366;28;19920;-82
2022/05/22 01:54:42;;;;;;;;;;;;;;;9.01;100.00;101123.19;5051242;28;19927;-79
2022/05/22 01:57:10;;;;;;;;;;;;;;;9.04;100.00;101130.00;5067541;28;20279;-79
2022/05/22 01:59:43;;;;;;;;;;;;;;;9.06;100.00;101119.72;5068469;28;19999;-79
2022/05/22 02:02:23;;;;;;;;;;;;;;;9.02;100.00;101118.59;5059043;28;19921;-81
2022/05/22 02:04:55;;;;;;;;;;;;;;;9.03;100.00;101122.94;5033472;28;19928;-79
2022/05/22 02:10:15;;;;;;;;;;;;;;;9.04;100.00;101121.88;5035438;28;19921;-80
2022/05/22 02:12:49;;;;;;;;;;;;;;;8.98;100.00;101115.59;5023790;28;20385;-80
2022/05/22 02:15:22;;;;;;;;;;;;;;;8.95;100.00;101109.84;5015474;28;19924;-80
2022/05/22 02:17:56;;;;;;;;;;;;;;;8.95;100.00;101107.97;5034014;28;19936;-80
2022/05/22 02:20:24;;;;;;;;;;;;;;;9.01;100.00;101104.19;5039244;28;19920;-80
2022/05/22 02:22:54;;;;;;;;;;;;;;;8.92;100.00;101108.47;5045640;28;19920;-80
2022/05/22 02:25:33;;;;;;;;;;;;;;;8.82;100.00;101106.50;5037023;28;19921;-80
2022/05/22 02:28:08;;;;;;;;;;;;;;;8.90;100.00;101107.91;5050560;28;19921;-80
2022/05/22 02:30:44;;;;;;;;;;;;;;;8.87;100.00;101110.34;5048927;28;19921;-80
2022/05/22 02:33:17;;;;;;;;;;;;;;;8.84;100.00;101114.38;5052860;28;19921;-80
2022/05/22 02:35:51;;;;;;;;;;;;;;;8.84;100.00;101111.66;5051404;28;19925;-80
2022/05/22 02:38:29;;;;;;;;;;;;;;;8.78;100.00;101112.69;5054184;28;19921;-80
2022/05/22 02:41:10;;;;;;;;;;;;;;;8.72;100.00;101109.09;5031905;28;20392;-79
2022/05/22 02:43:47;;;;;;;;;;;;;;;8.69;100.00;101109.63;5047751;28;19928;-79
2022/05/22 02:46:21;;;;;;;;;;;;;;;8.76;100.00;101104.81;5036150;28;19920;-80
2022/05/22 02:48:51;;;;;;;;;;;;;;;8.76;100.00;101114.84;5045746;28;19927;-79
2022/05/22 02:51:24;;;;;;;;;;;;;;;8.73;100.00;101113.47;5037896;28;19921;-80
2022/05/22 02:53:56;;;;;;;;;;;;;;;8.63;100.00;101103.31;5050331;28;19920;-79
2022/05/22 02:56:42;;;;;;;;;;;;;;;8.66;100.00;101104.72;5055042;28;19928;-80
2022/05/22 02:59:21;;;;;;;;;;;;;;;8.62;100.00;101104.41;5059867;28;19924;-80
2022/05/22 03:02:20;;;;;;;;;;;;;;;8.60;100.00;101106.53;5053907;28;19920;-80
2022/05/22 03:04:52;;;;;;;;;;;;;;;8.62;100.00;101109.00;5065409;28;19920;-80
2022/05/22 03:07:20;;;;;;;;;;;;;;;8.63;100.00;101103.31;5055800;28;19928;-80
2022/05/22 03:09:58;;;;;;;;;;;;;;;8.62;100.00;101106.31;5037093;28;19931;-80
2022/05/22 03:12:35;;;;;;;;;;;;;;;8.61;100.00;101096.53;5025970;28;19953;-81
2022/05/22 03:15:04;;;;;;;;;;;;;;;8.69;100.00;101109.63;5053821;28;19925;-79
2022/05/22 03:17:40;;;;;;;;;;;;;;;8.74;100.00;101106.97;5028304;28;19920;-79
2022/05/22 03:20:08;;;;;;;;;;;;;;;8.75;100.00;101099.63;5053403;28;19927;-80
2022/05/22 03:22:42;;;;;;;;;;;;;;;8.84;100.00;101111.66;5046749;28;19935;-79
2022/05/22 03:25:16;;;;;;;;;;;;;;;8.88;100.00;101109.25;5037043;28;19943;-79
2022/05/22 03:27:50;;;;;;;;;;;;;;;8.90;100.00;101102.47;5036654;28;19927;-81
2022/05/22 03:30:18;;;;;;;;;;;;;;;8.89;100.00;101106.25;5035567;28;19928;-80
2022/05/22 03:32:58;;;;;;;;;;;;;;;8.97;100.00;101110.41;5053474;28;19951;-80
2022/05/22 03:35:31;;;;;;;;;;;;;;;8.89;100.00;101114.41;5036816;28;19928;-79
2022/05/22 03:38:04;;;;;;;;;;;;;;;8.96;100.00;101109.59;5052615;28;19920;-80
2022/05/22 03:40:41;;;;;;;;;;;;;;;8.99;100.00;101100.94;5028612;28;20372;-80
2022/05/22 03:43:09;;;;;;;;;;;;;;;9.06;100.00;101110.75;5055578;28;20270;-80
2022/05/22 03:45:37;;;;;;;;;;;;;;;9.06;100.00;101108.03;5036491;28;20300;-81
2022/05/22 03:48:06;;;;;;;;;;;;;;;9.14;100.00;101105.69;5036344;28;19927;-80
2022/05/22 03:50:34;;;;;;;;;;;;;;;9.06;100.00;101108.03;5039432;28;19928;-80
2022/05/22 03:53:08;;;;;;;;;;;;;;;9.18;100.00;101112.22;5044815;28;19921;-80
2022/05/22 03:55:44;;;;;;;;;;;;;;;9.17;100.00;101110.59;5029965;28;19928;-80
2022/05/22 03:58:19;;;;;;;;;;;;;;;9.13;100.00;101112.19;5047748;28;19921;-79
2022/05/22 04:00:52;;;;;;;;;;;;;;;9.25;100.00;101111.97;5050464;28;19921;-81
2022/05/22 04:03:21;;;;;;;;;;;;;;;9.26;100.00;101118.25;5037129;28;19921;-80
2022/05/22 04:05:57;;;;;;;;;;;;;;;9.30;100.00;101114.75;5046470;28;19932;-81
2022/05/22 04:08:25;;;;;;;;;;;;;;;9.26;100.00;101115.53;5041734;28;19947;-81
2022/05/22 04:10:57;;;;;;;;;;;;;;;9.21;100.00;101113.59;5052547;28;20385;-81
2022/05/22 04:13:25;;;;;;;;;;;;;;;9.27;100.00;101111.75;5052311;28;19920;-81
2022/05/22 04:15:58;;;;;;;;;;;;;;;9.24;100.00;101117.69;5049069;28;20296;-80
2022/05/22 04:18:32;;;;;;;;;;;;;;;9.31;100.00;101119.09;5049743;28;19921;-81
2022/05/22 04:21:00;;;;;;;;;;;;;;;9.35;100.00;101120.22;5054729;28;19921;-81
2022/05/22 04:26:41;;;;;;;;;;;;;;;9.40;100.00;101115.91;5048963;28;19943;-81
2022/05/22 04:29:14;;;;;;;;;;;;;;;9.48;100.00;101113.50;5032398;28;19921;-80
2022/05/22 04:31:43;;;;;;;;;;;;;;;9.50;100.00;101118.69;5028162;28;19921;-79
2022/05/22 04:34:24;;;;;;;;;;;;;;;9.50;100.00;101116.78;5052731;28;19920;-80
2022/05/22 04:37:05;;;;;;;;;;;;;;;9.63;100.00;101126.38;5035372;28;20270;-80
2022/05/22 04:39:39;;;;;;;;;;;;;;;9.70;100.00;101123.44;5030854;28;19921;-80
2022/05/22 04:42:15;;;;;;;;;;;;;;;9.65;100.00;101115.25;5064509;28;19928;-80
2022/05/22 04:44:48;;;;;;;;;;;;;;;9.72;100.00;101123.16;5028150;28;19925;-81
2022/05/22 04:47:51;;;;;;;;;;;;;;;9.76;100.00;101124.28;5046951;28;20396;-81
2022/05/22 04:50:25;;;;;;;;;;;;;;;9.62;100.00;101130.16;5036291;28;20435;-81
2022/05/22 04:53:22;;;;;;;;;;;;;;;9.73;100.00;101124.81;5057554;28;20373;-81
2022/05/22 04:55:59;;;;;;;;;;;;;;;9.76;100.00;101129.72;5049825;28;19921;-80
2022/05/22 04:58:33;;;;;;;;;;;;;;;9.81;100.00;101137.91;5057289;28;20411;-81
2022/05/22 05:01:12;;;;;;;;;;;;;;;9.90;100.00;101135.50;5047383;28;20388;-80
2022/05/22 05:03:52;;;;;;;;;;;;;;;9.92;100.00;101133.34;5046893;28;19928;-80
2022/05/22 05:06:20;;;;;;;;;;;;;;;9.97;100.00;101131.47;5050011;28;19920;-81
2022/05/22 05:08:55;;;;;;;;;;;;;;;10.30;100.00;101134.03;5030211;28;20289;-82
2022/05/22 05:11:27;;;;;;;;;;;;;;;10.30;100.00;101128.59;5051536;28;19928;-80
2022/05/22 05:14:05;;;;;;;;;;;;;;;10.39;100.00;101129.75;5047654;28;19920;-81
2022/05/22 05:16:33;;;;;;;;;;;;;;;10.51;100.00;101129.53;5044031;28;19921;-82
2022/05/22 05:19:14;;;;;;;;;;;;;;;10.60;100.00;101135.25;5030954;28;19921;-80
2022/05/22 05:21:48;;;;;;;;;;;;;;;10.60;100.00;101130.59;5034741;28;20388;-81
2022/05/22 05:24:21;;;;;;;;;;;;;;;10.59;100.00;101133.59;5044983;28;19920;-81
2022/05/22 05:26:55;;;;;;;;;;;;;;;10.59;100.00;101137.13;5040973;28;19928;-82
2022/05/22 05:29:24;;;;;;;;;;;;;;;10.67;100.00;101133.88;5035075;28;19920;-81
2022/05/22 05:31:57;;;;;;;;;;;;;;;10.74;100.00;101151.88;5032859;28;19959;-81
2022/05/22 05:34:27;;;;;;;;;;;;;;;10.76;100.00;101146.97;5035619;28;19921;-80
2022/05/22 05:37:06;;;;;;;;;;;;;;;11.00;100.00;101145.38;5050694;28;19925;-82
2022/05/22 05:39:47;;;;;;;;;;;;;;;11.04;100.00;101138.28;5050881;28;19945;-81
2022/05/22 05:42:31;;;;;;;;;;;;;;;11.05;100.00;101139.94;5031278;28;19924;-81
2022/05/22 05:45:07;;;;;;;;;;;;;;;11.10;100.00;101139.09;5042687;28;20277;-81
2022/05/22 05:47:50;;;;;;;;;;;;;;;11.26;100.00;101141.84;5029693;28;19928;-79
2022/05/22 05:50:36;;;;;;;;;;;;;;;11.28;100.00;101142.38;5032793;28;19921;-79
2022/05/22 05:53:20;;;;;;;;;;;;;;;11.30;100.00;101140.22;5043765;28;19924;-79
2022/05/22 05:55:48;;;;;;;;;;;;;;;11.27;100.00;101138.84;5050728;28;20432;-80
2022/05/22 05:58:34;;;;;;;;;;;;;;;11.20;100.00;101130.94;5041316;28;19925;-80
2022/05/22 06:01:17;;;;;;;;;;;;;;;11.23;100.00;101143.22;5020790;28;19921;-80
2022/05/22 06:03:50;;;;;;;;;;;;;;;11.16;100.00;101139.94;5027784;28;19932;-79
2022/05/22 06:06:18;;;;;;;;;;;;;;;11.27;100.00;101136.13;5034008;28;19928;-80
2022/05/22 06:08:53;;;;;;;;;;;;;;;11.36;100.00;101129.03;5037002;28;19948;-79
2022/05/22 06:11:38;;;;;;;;;;;;;;;11.58;100.00;101133.34;5026553;28;19925;-79
2022/05/22 06:14:18;;;;;;;;;;;;;;;11.72;100.00;101139.06;5036175;28;19936;-80
2022/05/22 06:16:52;;;;;;;;;;;;;;;12.00;100.00;101128.63;5026606;28;19925;-79
2022/05/22 06:22:26;;;;;;;;;;;;;;;12.29;100.00;101125.25;5051506;28;19921;-85
2022/05/22 06:24:55;;;;;;;;;;;;;;;12.31;100.00;101118.41;5037212;28;20386;-82
2022/05/22 06:27:47;;;;;;;;;;;;;;;12.46;100.00;101120.25;5026488;28;20326;-76
2022/05/22 06:30:40;;;;;;;;;;;;;;;12.67;100.00;101117.41;5045170;28;19925;-76
2022/05/22 06:33:33;;;;;;;;;;;;;;;12.80;100.00;101119.50;5052970;28;19929;-75
2022/05/22 06:36:26;;;;;;;;;;;;;;;13.08;100.00;101117.91;5028252;28;19924;-74
2022/05/22 06:42:22;;;;;;;;;;;;;;;13.17;100.00;101109.91;5045370;28;19921;-76
2022/05/22 06:45:11;;;;;;;;;;;;;;;13.51;100.00;101105.53;5034700;28;19925;-78
2022/05/22 06:48:07;;;;;;;;;;;;;;;13.18;100.00;101108.00;5031656;28;19937;-74
2022/05/22 06:51:09;;;;;;;;;;;;;;;13.30;100.00;101102.97;5029603;28;20419;-77
2022/05/22 06:53:57;;;;;;;;;;;;;;;13.20;100.00;101106.63;5048951;28;19932;-76
2022/05/22 06:56:52;;;;;;;;;;;;;;;13.01;100.00;101120.16;5043739;28;20321;-75
2022/05/22 06:59:20;;;;;;;;;;;;;;;12.97;100.00;101121.00;5041734;28;19928;-73
2022/05/22 07:02:12;;;;;;;;;;;;;;;12.78;100.00;101104.50;5047825;28;19929;-73
2022/05/22 07:05:06;;;;;;;;;;;;;;;12.62;100.00;101106.50;5043485;28;19920;-74
2022/05/22 07:07:46;;;;;;;;;;;;;;;12.63;100.00;101111.69;5048411;28;19925;-73
2022/05/22 07:13:52;;;;;;;;;;;;;;;12.95;100.00;101118.56;5003115;28;19936;-76
2022/05/22 07:16:31;;;;;;;;;;;;;;;12.97;100.00;101110.06;5034355;28;20392;-73
2022/05/22 07:19:09;;;;;;;;;;;;;;;13.03;100.00;101109.75;5025394;28;20549;-73
2022/05/22 07:21:55;;;;;;;;;;;;;;;13.13;100.00;101111.56;5038347;28;19921;-73
2022/05/22 07:24:41;;;;;;;;;;;;;;;13.01;100.00;101111.13;5033568;28;20273;-75
2022/05/22 07:27:22;;;;;;;;;;;;;;;13.14;100.00;101107.75;5030509;28;20281;-73
2022/05/22 07:30:02;;;;;;;;;;;;;;;13.02;100.00;101096.38;5044614;28;19925;-73
2022/05/22 07:32:42;;;;;;;;;;;;;;;13.10;100.00;101107.53;5025149;28;19948;-74
2022/05/22 07:35:34;;;;;;;;;;;;;;;13.24;100.00;101106.84;5050726;28;19924;-75
2022/05/22 07:38:38;;;;;;;;;;;;;;;13.64;100.00;101107.56;5022984;28;20369;-73
2022/05/22 07:41:26;;;;;;;;;;;;;;;13.75;100.00;101103.63;5046990;28;19925;-73
2022/05/22 07:44:10;;;;;;;;;;;;;;;13.89;100.00;101095.53;5030953;28;19940;-74
2022/05/22 07:46:54;;;;;;;;;;;;;;;13.72;100.00;101108.84;5019819;28;19932;-73
2022/05/22 07:53:08;;;;;;;;;;;;;;;13.48;100.00;101111.56;5044419;28;19920;-82
2022/05/22 07:55:58;;;;;;;;;;;;;;;13.39;100.00;101111.38;5034538;28;20277;-79
2022/05/22 07:58:29;;;;;;;;;;;;;;;13.35;100.00;101107.56;5044412;28;19935;-79
2022/05/22 08:01:09;;;;;;;;;;;;;;;13.31;100.00;101101.84;5048785;28;19924;-80
2022/05/22 08:03:55;;;;;;;;;;;;;;;13.26;100.00;101099.19;5046122;28;20277;-79
2022/05/22 08:06:47;;;;;;;;;;;;;;;13.10;100.00;101093.84;5052312;28;19929;-79
2022/05/22 08:09:34;;;;;;;;;;;;;;;13.18;100.00;101091.59;5027818;28;20437;-79
2022/05/22 08:12:03;;;;;;;;;;;;;;;13.35;100.00;101096.63;5024882;28;19924;-79
2022/05/22 08:14:38;;;;;;;;;;;;;;;13.26;100.00;101096.44;5034184;28;19932;-78
2022/05/22 08:17:06;;;;;;;;;;;;;;;13.48;100.00;101093.25;5026734;28;20376;-80
2022/05/22 08:19:39;;;;;;;;;;;;;;;14.10;100.00;101087.06;5044083;28;19939;-78
2022/05/22 08:22:21;;;;;;;;;;;;;;;14.23;100.00;101096.47;5031384;28;19925;-78
2022/05/22 08:25:16;;;;;;;;;;;;;;;13.91;100.00;101093.31;5046949;28;19925;-79
2022/05/22 08:27:44;;;;;;;;;;;;;;;13.74;100.00;101090.22;5024442;28;19925;-80
2022/05/22 08:30:20;;;;;;;;;;;;;;;13.67;100.00;101092.50;5046244;28;19932;-78
2022/05/22 08:32:48;;;;;;;;;;;;;;;13.67;100.00;101093.34;5042356;28;19924;-79
2022/05/22 08:35:23;;;;;;;;;;;;;;;13.73;100.00;101092.16;5043688;28;19951;-78
2022/05/22 08:37:57;;;;;;;;;;;;;;;14.19;100.00;101090.78;5049161;28;19925;-79
2022/05/22 08:40:36;;;;;;;;;;;;;;;14.23;100.00;101086.34;5031478;28;19921;-79
2022/05/22 08:43:13;;;;;;;;;;;;;;;14.42;100.00;101085.53;5039878;28;19928;-79
2022/05/22 08:46:06;;;;;;;;;;;;;;;14.84;100.00;101080.28;5039801;28;19948;-80
2022/05/22 08:48:41;;;;;;;;;;;;;;;14.89;100.00;101078.28;5043203;28;19924;-79
2022/05/22 08:51:11;;;;;;;;;;;;;;;15.27;100.00;101072.69;5041713;28;19931;-80
2022/05/22 08:53:47;;;;;;;;;;;;;;;15.09;100.00;101071.66;5034445;28;19932;-80
2022/05/22 08:59:22;;;;;;;;;;;;;;;14.18;100.00;101096.53;4975630;28;19922;-79
2022/05/22 09:02:02;;;;;;;;;;;;;;;14.35;100.00;101105.06;4983760;28;19933;-80
2022/05/22 09:04:38;;;;;;;;;;;;;;;14.27;100.00;101098.31;5015098;28;19921;-78
2022/05/22 09:07:11;;;;;;;;;;;;;;;14.12;100.00;101095.78;5046144;28;19927;-81
2022/05/22 09:09:40;;;;;;;;;;;;;;;14.03;100.00;101092.91;5034773;28;19925;-77
2022/05/22 09:12:16;;;;;;;;;;;;;;;14.14;100.00;101101.81;5026095;28;19928;-79
2022/05/22 09:14:54;;;;;;;;;;;;;;;14.19;100.00;101100.91;5041595;28;19924;-80
2022/05/22 09:17:31;;;;;;;;;;;;;;;14.18;100.00;101102.00;5028908;28;19933;-80
2022/05/22 09:20:03;;;;;;;;;;;;;;;14.19;100.00;101103.66;5030173;28;20304;-79
2022/05/22 09:22:42;;;;;;;;;;;;;;;14.38;100.00;101096.25;5031080;28;20288;-78
2022/05/22 09:25:21;;;;;;;;;;;;;;;14.36;100.00;101109.44;5029121;28;19924;-81
2022/05/22 09:28:00;;;;;;;;;;;;;;;14.54;100.00;101096.03;5043176;28;19929;-79
2022/05/22 09:30:37;;;;;;;;;;;;;;;14.56;100.00;101089.16;5022596;28;19936;-80
2022/05/22 09:33:15;;;;;;;;;;;;;;;14.71;100.00;101082.66;5046401;28;20296;-81
2022/05/22 09:35:49;;;;;;;;;;;;;;;14.68;100.00;101087.91;5041053;28;20401;-79
2022/05/22 09:38:25;;;;;;;;;;;;;;;14.83;100.00;101086.88;5043651;28;19921;-79
2022/05/22 09:41:02;;;;;;;;;;;;;;;14.71;100.00;101088.16;5051023;28;19924;-79
2022/05/22 09:43:56;;;;;;;;;;;;;;;14.75;100.00;101086.44;5040329;28;20369;-78
2022/05/22 09:46:35;;;;;;;;;;;;;;;15.06;100.00;101088.66;5049903;28;19929;-79
2022/05/22 09:49:11;;;;;;;;;;;;;;;14.82;100.00;101085.22;5041611;28;19925;-79
2022/05/22 09:51:51;;;;;;;;;;;;;;;14.96;100.00;101094.34;5050450;28;19932;-79
2022/05/22 09:54:41;;;;;;;;;;;;;;;14.84;100.00;101091.25;5027116;28;19929;-79
2022/05/22 09:57:14;;;;;;;;;;;;;;;14.86;100.00;101084.34;5039583;28;19948;-80
2022/05/22 09:59:55;;;;;;;;;;;;;;;15.05;100.00;101084.31;5045956;28;19920;-79
2022/05/22 10:02:24;;;;;;;;;;;;;;;15.15;100.00;101075.09;5042423;28;20332;-78
2022/05/22 10:05:03;;;;;;;;;;;;;;;15.34;100.00;101082.44;5045082;28;19936;-78
2022/05/22 10:07:39;;;;;;;;;;;;;;;15.23;100.00;101079.91;5023296;28;19927;-79
2022/05/22 10:10:17;;;;;;;;;;;;;;;15.45;100.00;101079.22;5032207;28;19921;-79
2022/05/22 10:12:53;;;;;;;;;;;;;;;15.77;100.00;101080.25;5025808;28;20266;-78
2022/05/22 10:15:53;;;;;;;;;;;;;;;15.75;100.00;101079.72;5045366;28;19930;-78
2022/05/22 10:18:33;;;;;;;;;;;;;;;16.08;100.00;101079.63;5030108;28;19922;-78
2022/05/22 10:21:14;;;;;;;;;;;;;;;16.13;100.00;101074.03;5043968;28;19928;-79
2022/05/22 10:23:55;;;;;;;;;;;;;;;15.95;100.00;101070.31;5035106;28;19920;-77
2022/05/22 10:26:36;;;;;;;;;;;;;;;15.74;100.00;101069.88;5032552;28;19940;-78
2022/05/22 10:29:12;;;;;;;;;;;;;;;15.87;100.00;101072.94;5045098;28;19928;-80
2022/05/22 10:31:42;;;;;;;;;;;;;;;15.85;100.00;101062.28;5032976;28;19932;-78
2022/05/22 10:34:20;;;;;;;;;;;;;;;15.67;100.00;101069.47;5042483;28;19929;-79
2022/05/22 10:36:56;;;;;;;;;;;;;;;15.50;100.00;101059.09;5046598;28;19932;-79
2022/05/22 10:39:24;;;;;;;;;;;;;;;15.76;100.00;101056.66;5036728;28;19921;-79
2022/05/22 10:44:53;;;;;;;;;;;;;;;15.34;100.00;101057.75;5042698;28;19921;-78
2022/05/22 10:47:27;;;;;;;;;;;;;;;15.16;100.00;101060.25;5040440;28;19986;-80
2022/05/22 10:50:01;;;;;;;;;;;;;;;15.17;100.00;101063.84;5039885;28;20321;-80
2022/05/22 10:52:35;;;;;;;;;;;;;;;15.43;100.00;101061.44;5028386;28;19924;-78
2022/05/22 10:55:16;;;;;;;;;;;;;;;16.04;100.00;101058.59;5053719;28;19924;-81
2022/05/22 10:57:56;;;;;;;;;;;;;;;16.28;100.00;101059.16;5042311;28;19932;-78
2022/05/22 11:00:30;;;;;;;;;;;;;;;16.75;100.00;101047.06;5035770;28;19924;-79
2022/05/22 11:03:12;;;;;;;;;;;;;;;16.58;100.00;101051.31;5030706;28;19921;-80
2022/05/22 11:05:40;;;;;;;;;;;;;;;16.75;100.00;101052.56;5030076;28;19932;-80
2022/05/22 11:08:24;;;;;;;;;;;;;;;16.78;100.00;101044.53;5046790;28;19928;-78
2022/05/22 11:11:01;;;;;;;;;;;;;;;16.89;100.00;101052.53;5031041;28;19921;-78
2022/05/22 11:13:35;;;;;;;;;;;;;;;16.75;100.00;101044.31;5034411;28;19929;-79
2022/05/22 11:16:10;;;;;;;;;;;;;;;17.03;100.00;101036.78;5043728;28;19996;-77
2022/05/22 11:18:44;;;;;;;;;;;;;;;17.70;100.00;101034.16;5038038;28;19925;-78
2022/05/22 11:21:22;;;;;;;;;;;;;;;18.04;100.00;101019.66;5046610;28;19969;-79
2022/05/22 11:24:06;;;;;;;;;;;;;;;18.06;100.00;101019.34;5032990;28;19932;-81
2022/05/22 11:26:44;;;;;;;;;;;;;;;18.59;100.00;101018.22;5040532;28;19925;-79
2022/05/22 11:29:17;;;;;;;;;;;;;;;19.08;100.00;101014.41;5039733;28;19921;-82
2022/05/22 11:31:55;;;;;;;;;;;;;;;19.07;100.00;101012.78;5048580;28;20277;-81
2022/05/22 11:34:37;;;;;;;;;;;;;;;19.13;100.00;100995.72;5030080;28;20369;-78
2022/05/22 11:37:13;;;;;;;;;;;;;;;18.49;100.00;101002.81;5029353;28;20399;-79
2022/05/22 11:39:51;;;;;;;;;;;;;;;18.26;100.00;100998.63;5045086;28;19928;-79
2022/05/22 11:42:25;;;;;;;;;;;;;;;18.50;100.00;100996.16;5046840;28;19924;-78
2022/05/22 11:45:03;;;;;;;;;;;;;;;18.87;100.00;100998.53;5032527;28;19921;-79
2022/05/22 11:47:42;;;;;;;;;;;;;;;18.85;100.00;100989.75;5038118;28;19940;-78
2022/05/22 11:50:24;;;;;;;;;;;;;;;18.20;98.73;100986.94;5033772;28;19929;-80
2022/05/22 11:52:57;;;;;;;;;;;;;;;18.19;88.71;100994.41;5045470;28;19921;-80
2022/05/22 11:55:43;;;;;;;;;;;;;;;18.27;86.03;100983.69;5050589;28;19931;-79
2022/05/22 11:58:21;;;;;;;;;;;;;;;18.74;100.00;100977.47;5043833;28;19925;-78
2022/05/22 12:00:58;;;;;;;;;;;;;;;18.84;87.78;100974.38;5046386;28;19932;-78
2022/05/22 12:03:46;;;;;;;;;;;;;;;18.17;81.10;100977.41;5044094;28;19931;-78
2022/05/22 12:06:28;;;;;;;;;;;;;;;17.43;100.00;100981.78;5042573;28;19925;-79
2022/05/22 12:09:17;;;;;;;;;;;;;;;17.16;100.00;100975.38;5052148;28;20288;-80
2022/05/22 12:11:59;;;;;;;;;;;;;;;16.73;100.00;100973.19;5041978;28;19925;-80
2022/05/22 12:14:37;;;;;;;;;;;;;;;16.23;100.00;100979.63;5034854;28;19928;-79
2022/05/22 12:17:13;;;;;;;;;;;;;;;16.22;100.00;100979.94;5040424;28;19921;-81
2022/05/22 12:19:52;;;;;;;;;;;;;;;16.23;100.00;100976.09;5028948;28;19925;-81
2022/05/22 12:23:07;;;;;;;;;;;;;;;16.21;100.00;100978.31;5051556;28;20341;-79
2022/05/22 12:25:17;;;;;;;;;;;;;;;16.92;100.00;100973.00;5037831;28;19943;-80
2022/05/22 12:27:53;;;;;;;;;;;;;;;16.74;100.00;100969.31;5043127;28;19928;-79
2022/05/22 12:30:27;;;;;;;;;;;;;;;17.16;100.00;100958.06;5037875;28;19925;-80
2022/05/22 12:32:57;;;;;;;;;;;;;;;17.45;100.00;100957.50;5031943;28;19920;-79
2022/05/22 12:35:31;;;;;;;;;;;;;;;17.31;100.00;100956.81;5040332;28;20365;-80
2022/05/22 12:38:05;;;;;;;;;;;;;;;16.59;96.48;100953.22;5044630;28;19925;-78
2022/05/22 12:40:38;;;;;;;;;;;;;;;16.35;100.00;100964.53;5014475;28;19932;-78
2022/05/22 12:43:14;;;;;;;;;;;;;;;16.11;100.00;100960.16;5042184;28;19928;-78
2022/05/22 12:45:50;;;;;;;;;;;;;;;16.11;100.00;100960.16;5027491;28;19924;-79
2022/05/22 12:48:27;;;;;;;;;;;;;;;16.13;100.00;100966.97;5042237;28;19927;-79
2022/05/22 12:51:09;;;;;;;;;;;;;;;15.96;100.00;100964.88;5045287;28;19921;-79
2022/05/22 12:53:43;;;;;;;;;;;;;;;15.94;100.00;100964.38;5032496;28;19924;-79
2022/05/22 12:56:23;;;;;;;;;;;;;;;15.95;100.00;100955.03;5030864;28;19924;-80
2022/05/22 12:58:58;;;;;;;;;;;;;;;15.91;100.00;100958.69;5041719;28;19931;-80
2022/05/22 13:01:39;;;;;;;;;;;;;;;16.10;100.00;100953.88;5029676;28;19925;-78
2022/05/22 13:04:22;;;;;;;;;;;;;;;16.22;100.00;100957.97;5043495;28;19920;-79
2022/05/22 13:06:58;;;;;;;;;;;;;;;16.45;100.00;100956.06;5041705;28;19925;-79
2022/05/22 13:09:34;;;;;;;;;;;;;;;16.61;100.00;100954.53;5050081;28;19925;-79
2022/05/22 13:12:10;;;;;;;;;;;;;;;16.52;100.00;100950.09;5042788;28;19927;-80
2022/05/22 13:14:51;;;;;;;;;;;;;;;16.52;100.00;100948.19;5039343;28;19920;-78
2022/05/22 13:17:31;;;;;;;;;;;;;;;16.64;100.00;100953.06;5045996;28;19925;-81
2022/05/22 13:20:02;;;;;;;;;;;;;;;16.72;100.00;100940.53;5039016;28;19928;-79
2022/05/22 13:22:31;;;;;;;;;;;;;;;16.70;100.00;100938.09;5046139;28;19925;-78
2022/05/22 13:25:06;;;;;;;;;;;;;;;17.11;100.00;100945.28;5044783;28;19928;-80
2022/05/22 13:27:41;;;;;;;;;;;;;;;17.01;100.00;100942.78;5030990;28;20700;-80
2022/05/22 13:30:21;;;;;;;;;;;;;;;17.46;100.00;100937.13;5041634;28;20286;-79
2022/05/22 13:32:56;;;;;;;;;;;;;;;17.13;95.83;100929.25;5039328;28;19945;-80
2022/05/22 13:35:32;;;;;;;;;;;;;;;17.15;100.00;100937.19;5049470;28;20302;-78
2022/05/22 13:38:10;;;;;;;;;;;;;;;16.92;98.72;100930.97;5030395;28;20301;-78
2022/05/22 13:40:48;;;;;;;;;;;;;;;16.80;100.00;100928.78;5044246;28;19925;-78
2022/05/22 13:43:39;;;;;;;;;;;;;;;16.53;100.00;100930.56;5044409;28;19924;-80